createdAt,value
2019-02-17T00:02:04.104Z,4.70
2019-02-17T00:04:30.823Z,4.70
2019-02-17T00:06:57.519Z,4.80
2019-02-17T00:09:24.468Z,4.90
2019-02-17T00:11:50.919Z,4.90
2019-02-17T00:14:17.768Z,4.80
2019-02-17T00:16:44.472Z,4.80
2019-02-17T00:19:11.047Z,4.70
2019-02-17T00:21:37.975Z,4.70
2019-02-17T00:24:04.928Z,4.60
2019-02-17T00:26:31.384Z,4.50
2019-02-17T00:28:59.760Z,4.50
2019-02-17T00:31:26.277Z,4.40
2019-02-17T00:33:52.779Z,4.40
2019-02-17T00:36:19.468Z,4.30
2019-02-17T00:38:46.175Z,4.30
2019-02-17T00:41:13.112Z,4.30
2019-02-17T00:43:39.844Z,4.20
2019-02-17T00:46:06.776Z,4.20
2019-02-17T00:48:33.480Z,4.10
2019-02-17T00:50:59.949Z,4.10
2019-02-17T00:53:26.669Z,4.10
2019-02-17T00:55:53.363Z,4.10
2019-02-17T00:58:19.832Z,4.00
2019-02-17T01:00:46.531Z,4.00
2019-02-17T01:03:13.236Z,3.90
2019-02-17T01:05:39.684Z,3.90
2019-02-17T01:08:06.152Z,3.90
2019-02-17T01:10:32.607Z,3.80
2019-02-17T01:12:59.308Z,3.80
2019-02-17T01:15:26.011Z,3.80
2019-02-17T01:17:52.932Z,3.90
2019-02-17T01:20:19.404Z,3.90
2019-02-17T01:22:46.112Z,3.80
2019-02-17T01:25:12.580Z,3.80
2019-02-17T01:27:39.038Z,3.70
2019-02-17T01:30:06.167Z,3.70
2019-02-17T01:32:32.643Z,3.70
2019-02-17T01:34:59.361Z,3.60
2019-02-17T01:37:26.060Z,3.60
2019-02-17T01:39:52.931Z,3.60
2019-02-17T01:42:19.626Z,3.60
2019-02-17T01:44:46.100Z,3.50
2019-02-17T01:47:13.027Z,3.50
2019-02-17T01:49:39.723Z,3.50
2019-02-17T01:52:06.180Z,3.60
2019-02-17T01:54:32.892Z,3.70
2019-02-17T01:56:59.339Z,3.80
2019-02-17T01:59:30.678Z,3.90
2019-02-17T02:01:54.652Z,3.90
2019-02-17T02:04:21.737Z,4.00
2019-02-17T02:06:49.155Z,4.00
2019-02-17T02:09:15.648Z,4.00
2019-02-17T02:11:42.360Z,4.00
2019-02-17T02:14:09.409Z,4.10
2019-02-17T02:16:36.095Z,4.10
2019-02-17T02:19:02.574Z,4.10
2019-02-17T02:21:29.356Z,4.10
2019-02-17T02:23:56.055Z,4.10
2019-02-17T02:26:22.771Z,4.10
2019-02-17T02:28:49.458Z,4.10
2019-02-17T02:31:16.176Z,4.10
2019-02-17T02:33:43.787Z,4.20
2019-02-17T02:36:10.805Z,4.20
2019-02-17T02:38:37.507Z,4.10
2019-02-17T02:41:04.296Z,4.10
2019-02-17T02:43:31.236Z,4.10
2019-02-17T02:45:57.725Z,4.20
2019-02-17T02:48:24.735Z,4.20
2019-02-17T02:50:53.186Z,4.20
2019-02-17T02:53:20.008Z,4.20
2019-02-17T02:55:46.736Z,4.20
2019-02-17T02:58:13.199Z,4.20
2019-02-17T03:00:39.921Z,4.10
2019-02-17T03:03:06.382Z,4.10
2019-02-17T03:05:33.403Z,3.90
2019-02-17T03:07:59.866Z,3.80
2019-02-17T03:10:26.923Z,3.70
2019-02-17T03:12:53.474Z,3.50
2019-02-17T03:15:20.244Z,3.40
2019-02-17T03:17:46.749Z,3.30
2019-02-17T03:20:13.549Z,3.10
2019-02-17T03:22:40.260Z,3.10
2019-02-17T03:25:06.978Z,3.10
2019-02-17T03:27:33.680Z,3.10
2019-02-17T03:30:05.185Z,3.00
2019-02-17T03:32:28.752Z,3.00
2019-02-17T03:34:55.221Z,2.90
2019-02-17T03:37:21.678Z,2.90
2019-02-17T03:39:48.472Z,2.80
2019-02-17T03:42:14.924Z,2.70
2019-02-17T03:44:41.392Z,2.60
2019-02-17T03:47:08.116Z,2.50
2019-02-17T03:49:34.663Z,2.40
2019-02-17T03:52:01.383Z,2.40
2019-02-17T03:54:28.080Z,2.30
2019-02-17T03:56:55.032Z,2.20
2019-02-17T03:59:21.965Z,2.00
2019-02-17T04:01:48.918Z,2.00
2019-02-17T04:04:15.486Z,1.90
2019-02-17T04:06:42.050Z,1.90
2019-02-17T04:09:08.764Z,2.00
2019-02-17T04:11:35.487Z,2.00
2019-02-17T04:14:01.953Z,2.00
2019-02-17T04:16:28.399Z,2.00
2019-02-17T04:18:55.119Z,2.00
2019-02-17T04:21:21.828Z,2.10
2019-02-17T04:23:48.302Z,2.10
2019-02-17T04:26:15.097Z,2.20
2019-02-17T04:28:41.891Z,2.40
2019-02-17T04:31:08.597Z,2.60
2019-02-17T04:33:35.068Z,2.80
2019-02-17T04:36:01.525Z,2.90
2019-02-17T04:38:28.496Z,3.00
2019-02-17T04:40:55.235Z,3.10
2019-02-17T04:43:22.184Z,3.10
2019-02-17T04:45:48.888Z,3.10
2019-02-17T04:48:15.375Z,3.10
2019-02-17T04:50:41.912Z,3.10
2019-02-17T04:53:08.620Z,3.00
2019-02-17T04:55:35.319Z,3.10
2019-02-17T04:58:02.265Z,3.00
2019-02-17T05:00:39.241Z,3.00
2019-02-17T05:02:58.396Z,2.90
2019-02-17T05:05:25.345Z,2.80
2019-02-17T05:07:52.048Z,2.60
2019-02-17T05:10:18.788Z,2.50
2019-02-17T05:12:45.495Z,2.40
2019-02-17T05:15:11.964Z,2.40
2019-02-17T05:17:38.900Z,2.30
2019-02-17T05:20:05.408Z,2.40
2019-02-17T05:22:32.115Z,2.60
2019-02-17T05:24:58.814Z,2.60
2019-02-17T05:27:25.756Z,2.60
2019-02-17T05:29:52.222Z,2.60
2019-02-17T05:32:18.933Z,2.50
2019-02-17T05:34:45.636Z,2.40
2019-02-17T05:37:12.323Z,2.30
2019-02-17T05:39:39.033Z,2.20
2019-02-17T05:42:05.737Z,2.20
2019-02-17T05:44:32.437Z,2.10
2019-02-17T05:46:59.137Z,2.00
2019-02-17T05:49:25.864Z,2.00
2019-02-17T05:51:52.317Z,1.90
2019-02-17T05:54:19.153Z,1.80
2019-02-17T05:56:46.175Z,1.70
2019-02-17T05:59:12.879Z,1.80
2019-02-17T06:01:39.827Z,1.80
2019-02-17T06:04:06.305Z,1.70
2019-02-17T06:06:33.008Z,1.70
2019-02-17T06:08:59.713Z,1.70
2019-02-17T06:11:26.418Z,1.70
2019-02-17T06:13:53.095Z,1.60
2019-02-17T06:16:19.791Z,1.70
2019-02-17T06:18:46.243Z,1.80
2019-02-17T06:21:12.965Z,1.80
2019-02-17T06:23:39.421Z,1.90
2019-02-17T06:26:06.123Z,1.90
2019-02-17T06:28:33.052Z,2.00
2019-02-17T06:30:59.524Z,1.90
2019-02-17T06:33:26.231Z,2.00
2019-02-17T06:35:52.943Z,2.00
2019-02-17T06:38:19.651Z,2.10
2019-02-17T06:40:46.605Z,2.10
2019-02-17T06:43:13.533Z,2.20
2019-02-17T06:45:40.251Z,2.30
2019-02-17T06:48:06.953Z,2.40
2019-02-17T06:50:33.678Z,2.60
2019-02-17T06:53:00.604Z,3.00
2019-02-17T06:55:34.687Z,3.50
2019-02-17T06:58:01.397Z,3.80
2019-02-17T07:00:31.207Z,4.20
2019-02-17T07:02:58.227Z,4.50
2019-02-17T07:05:41.925Z,4.70
2019-02-17T07:08:09.410Z,4.70
2019-02-17T07:10:36.231Z,5.00
2019-02-17T07:13:02.694Z,5.30
2019-02-17T07:15:29.395Z,5.60
2019-02-17T07:17:56.464Z,5.80
2019-02-17T07:20:22.953Z,5.90
2019-02-17T07:22:49.683Z,6.00
2019-02-17T07:25:16.175Z,6.10
2019-02-17T07:27:43.019Z,6.20
2019-02-17T07:30:09.758Z,6.30
2019-02-17T07:32:36.443Z,6.30
2019-02-17T07:35:02.931Z,6.40
2019-02-17T07:37:33.464Z,6.60
2019-02-17T07:39:58.420Z,6.70
2019-02-17T07:42:25.121Z,6.70
2019-02-17T07:44:51.591Z,6.80
2019-02-17T07:47:18.307Z,7.00
2019-02-17T07:49:44.760Z,7.40
2019-02-17T07:52:11.490Z,7.60
2019-02-17T07:54:38.515Z,7.70
2019-02-17T07:57:04.991Z,8.00
2019-02-17T07:59:31.471Z,8.50
2019-02-17T08:01:58.201Z,8.90
2019-02-17T08:04:25.236Z,9.10
2019-02-17T08:06:52.002Z,9.20
2019-02-17T08:09:18.699Z,9.40
2019-02-17T08:11:45.735Z,9.60
2019-02-17T08:14:12.436Z,9.70
2019-02-17T08:16:38.992Z,10.00
2019-02-17T08:19:05.476Z,10.50
2019-02-17T08:21:31.949Z,10.80
2019-02-17T08:23:58.407Z,11.00
2019-02-17T08:26:25.360Z,11.10
2019-02-17T08:28:52.063Z,11.40
2019-02-17T08:31:18.532Z,11.80
2019-02-17T08:33:45.093Z,12.00
2019-02-17T08:36:11.849Z,12.10
2019-02-17T08:38:38.784Z,12.10
2019-02-17T08:41:05.508Z,12.20
2019-02-17T08:43:32.108Z,12.50
2019-02-17T08:45:58.824Z,12.90
2019-02-17T08:48:25.776Z,13.10
2019-02-17T08:50:52.729Z,13.10
2019-02-17T08:53:19.541Z,12.80
2019-02-17T08:55:46.000Z,12.40
2019-02-17T08:58:13.031Z,12.30
2019-02-17T09:00:39.841Z,12.30
2019-02-17T09:03:06.561Z,12.40
2019-02-17T09:05:43.630Z,12.80
2019-02-17T09:08:04.014Z,13.10
2019-02-17T09:10:30.643Z,13.10
2019-02-17T09:12:57.112Z,13.70
2019-02-17T09:15:23.613Z,14.60
2019-02-17T09:17:50.316Z,15.50
2019-02-17T09:20:17.044Z,16.10
2019-02-17T09:22:43.524Z,16.60
2019-02-17T09:25:10.251Z,17.00
2019-02-17T09:27:37.007Z,17.60
2019-02-17T09:30:04.233Z,18.70
2019-02-17T09:32:30.712Z,19.40
2019-02-17T09:34:58.092Z,19.30
2019-02-17T09:37:24.810Z,19.40
2019-02-17T09:39:51.620Z,19.80
2019-02-17T09:42:18.334Z,20.50
2019-02-17T09:44:44.813Z,21.10
2019-02-17T09:47:11.524Z,21.40
2019-02-17T09:49:38.580Z,21.80
2019-02-17T09:52:05.313Z,21.80
2019-02-17T09:54:32.251Z,21.50
2019-02-17T09:56:58.973Z,20.80
2019-02-17T09:59:25.715Z,20.60
2019-02-17T10:01:52.519Z,20.50
2019-02-17T10:04:19.096Z,20.30
2019-02-17T10:06:45.775Z,20.60
2019-02-17T10:09:12.489Z,20.50
2019-02-17T10:11:38.937Z,20.30
2019-02-17T10:14:05.500Z,20.30
2019-02-17T10:16:32.265Z,20.50
2019-02-17T10:18:59.044Z,20.90
2019-02-17T10:21:26.555Z,21.60
2019-02-17T10:23:53.151Z,22.50
2019-02-17T10:26:19.604Z,23.40
2019-02-17T10:28:46.083Z,24.00
2019-02-17T10:31:12.789Z,24.00
2019-02-17T10:33:39.655Z,24.40
2019-02-17T10:36:06.116Z,24.80
2019-02-17T10:38:32.619Z,25.20
2019-02-17T10:40:59.426Z,25.20
2019-02-17T10:43:26.404Z,25.00
2019-02-17T10:45:53.093Z,24.50
2019-02-17T10:48:20.053Z,24.00
2019-02-17T10:50:46.763Z,24.00
2019-02-17T10:53:13.247Z,24.30
2019-02-17T10:55:40.071Z,24.50
2019-02-17T10:58:06.639Z,23.90
2019-02-17T11:00:33.571Z,23.80
2019-02-17T11:03:02.311Z,23.70
2019-02-17T11:05:29.345Z,23.70
2019-02-17T11:07:55.848Z,23.20
2019-02-17T11:10:22.552Z,22.50
2019-02-17T11:12:49.064Z,22.10
2019-02-17T11:15:15.619Z,22.20
2019-02-17T11:17:42.575Z,21.80
2019-02-17T11:20:09.318Z,20.90
2019-02-17T11:22:36.106Z,20.30
2019-02-17T11:25:02.633Z,20.10
2019-02-17T11:27:29.352Z,20.20
2019-02-17T11:29:56.096Z,19.90
2019-02-17T11:32:22.780Z,19.70
2019-02-17T11:34:49.279Z,19.60
2019-02-17T11:37:15.761Z,19.60
2019-02-17T11:39:43.109Z,19.30
2019-02-17T11:42:09.818Z,19.30
2019-02-17T11:44:36.552Z,19.00
2019-02-17T11:47:03.015Z,18.90
2019-02-17T11:49:29.511Z,19.10
2019-02-17T11:51:56.220Z,19.60
2019-02-17T11:54:23.184Z,20.00
2019-02-17T11:56:50.140Z,20.60
2019-02-17T11:59:16.898Z,21.00
2019-02-17T12:01:43.589Z,21.60
2019-02-17T12:04:10.544Z,22.10
2019-02-17T12:06:37.257Z,22.30
2019-02-17T12:09:04.336Z,22.70
2019-02-17T12:11:30.804Z,23.10
2019-02-17T12:13:57.770Z,23.10
2019-02-17T12:16:24.492Z,22.10
2019-02-17T12:18:51.233Z,22.20
2019-02-17T12:21:46.335Z,22.70
2019-02-17T12:24:15.550Z,22.90
2019-02-17T12:26:50.103Z,22.00
2019-02-17T12:29:22.399Z,21.50
2019-02-17T12:31:49.202Z,21.10
2019-02-17T12:34:15.929Z,20.80
2019-02-17T12:36:42.880Z,21.20
2019-02-17T12:39:09.615Z,20.70
2019-02-17T12:41:36.063Z,20.20
2019-02-17T12:44:02.791Z,20.70
2019-02-17T12:46:29.500Z,21.10
2019-02-17T12:48:55.984Z,21.40
2019-02-17T12:51:22.444Z,21.60
2019-02-17T12:53:49.156Z,21.60
2019-02-17T12:56:15.967Z,21.50
2019-02-17T12:58:42.919Z,20.50
2019-02-17T13:01:09.645Z,20.00
2019-02-17T13:03:36.339Z,19.90
2019-02-17T13:06:03.081Z,20.20
2019-02-17T13:08:30.011Z,19.70
2019-02-17T13:10:56.970Z,19.20
2019-02-17T13:13:23.428Z,18.70
2019-02-17T13:15:50.392Z,19.10
2019-02-17T13:18:16.875Z,19.60
2019-02-17T13:20:43.555Z,19.70
2019-02-17T13:23:10.023Z,19.70
2019-02-17T13:25:38.239Z,19.70
2019-02-17T13:28:05.145Z,19.50
2019-02-17T13:30:31.719Z,19.60
2019-02-17T13:32:58.203Z,19.70
2019-02-17T13:35:24.681Z,19.60
2019-02-17T13:37:51.141Z,19.60
2019-02-17T13:40:17.891Z,19.80
2019-02-17T13:42:44.349Z,20.20
2019-02-17T13:45:11.340Z,20.30
2019-02-17T13:47:38.300Z,20.40
2019-02-17T13:50:05.576Z,20.10
2019-02-17T13:52:32.260Z,20.40
2019-02-17T13:54:59.045Z,20.70
2019-02-17T13:57:25.504Z,20.20
2019-02-17T13:59:51.988Z,19.70
2019-02-17T14:02:18.699Z,19.60
2019-02-17T14:04:45.456Z,19.40
2019-02-17T14:07:12.148Z,18.90
2019-02-17T14:09:38.607Z,18.80
2019-02-17T14:12:05.107Z,19.10
2019-02-17T14:14:31.916Z,19.30
2019-02-17T14:16:58.671Z,19.00
2019-02-17T14:19:25.635Z,18.90
2019-02-17T14:21:52.145Z,18.70
2019-02-17T14:24:18.876Z,18.60
2019-02-17T14:26:45.363Z,18.40
2019-02-17T14:29:11.822Z,18.40
2019-02-17T14:31:38.560Z,17.90
2019-02-17T14:34:05.251Z,17.30
2019-02-17T14:36:31.738Z,17.30
2019-02-17T14:38:58.203Z,17.30
2019-02-17T14:41:24.744Z,16.70
2019-02-17T14:43:51.476Z,16.00
2019-02-17T14:46:18.199Z,15.60
2019-02-17T14:48:44.905Z,15.50
2019-02-17T14:51:11.677Z,15.60
2019-02-17T14:53:38.219Z,15.80
2019-02-17T14:56:04.943Z,15.70
2019-02-17T14:58:31.748Z,15.30
2019-02-17T15:00:58.232Z,15.10
2019-02-17T15:03:24.942Z,15.10
2019-02-17T15:05:53.631Z,15.10
2019-02-17T15:08:20.028Z,15.20
2019-02-17T15:10:46.775Z,15.20
2019-02-17T15:13:13.561Z,15.20
2019-02-17T15:15:40.395Z,14.90
2019-02-17T15:18:06.863Z,14.80
2019-02-17T15:20:33.435Z,14.70
2019-02-17T15:23:00.183Z,14.60
2019-02-17T15:25:26.728Z,14.50
2019-02-17T15:27:53.496Z,14.30
2019-02-17T15:30:20.478Z,14.10
2019-02-17T15:32:47.331Z,13.90
2019-02-17T15:35:14.289Z,13.80
2019-02-17T15:37:41.015Z,13.60
2019-02-17T15:40:08.437Z,13.50
2019-02-17T15:42:34.917Z,13.40
2019-02-17T15:45:01.382Z,13.30
2019-02-17T15:47:28.127Z,13.20
2019-02-17T15:49:54.583Z,13.10
2019-02-17T15:52:21.328Z,12.90
2019-02-17T15:54:48.044Z,12.90
2019-02-17T15:57:14.773Z,12.80
2019-02-17T15:59:41.225Z,12.70
2019-02-17T16:02:08.672Z,12.50
2019-02-17T16:04:35.213Z,12.40
2019-02-17T16:07:01.700Z,12.30
2019-02-17T16:09:28.404Z,12.20
2019-02-17T16:11:54.888Z,12.00
2019-02-17T16:14:21.823Z,11.80
2019-02-17T16:16:48.368Z,11.70
2019-02-17T16:19:15.180Z,11.50
2019-02-17T16:21:41.913Z,11.30
2019-02-17T16:24:08.604Z,11.10
2019-02-17T16:26:35.564Z,10.80
2019-02-17T16:29:02.024Z,10.70
2019-02-17T16:31:29.011Z,10.40
2019-02-17T16:33:55.978Z,10.20
2019-02-17T16:36:22.697Z,10.00
2019-02-17T16:38:49.273Z,9.90
2019-02-17T16:41:15.721Z,9.80
2019-02-17T16:43:42.256Z,9.60
2019-02-17T16:46:09.011Z,9.60
2019-02-17T16:48:35.981Z,9.60
2019-02-17T16:51:02.443Z,9.50
2019-02-17T16:53:28.943Z,9.60
2019-02-17T16:55:55.688Z,9.60
2019-02-17T16:58:22.404Z,9.50
2019-02-17T17:00:49.357Z,9.50
2019-02-17T17:03:16.354Z,9.40
2019-02-17T17:05:43.036Z,9.40
2019-02-17T17:08:09.536Z,9.40
2019-02-17T17:10:36.475Z,9.30
2019-02-17T17:13:02.947Z,9.30
2019-02-17T17:15:30.708Z,9.30
2019-02-17T17:17:57.191Z,9.10
2019-02-17T17:20:23.914Z,9.00
2019-02-17T17:22:50.735Z,8.80
2019-02-17T17:25:18.348Z,8.80
2019-02-17T17:27:45.304Z,8.80
2019-02-17T17:30:12.044Z,8.90
2019-02-17T17:32:39.068Z,8.80
2019-02-17T17:35:06.118Z,8.70
2019-02-17T17:37:32.856Z,8.50
2019-02-17T17:39:59.788Z,8.30
2019-02-17T17:42:26.520Z,8.20
2019-02-17T17:44:53.208Z,8.20
2019-02-17T17:47:19.672Z,8.30
2019-02-17T17:49:46.161Z,8.30
2019-02-17T17:52:13.148Z,8.40
2019-02-17T17:54:40.103Z,8.30
2019-02-17T17:57:06.559Z,8.30
2019-02-17T17:59:33.521Z,8.30
2019-02-17T18:02:00.233Z,8.20
2019-02-17T18:04:26.959Z,8.20
2019-02-17T18:06:53.895Z,8.20
2019-02-17T18:09:20.620Z,8.20
2019-02-17T18:11:47.300Z,8.10
2019-02-17T18:14:13.784Z,8.00
2019-02-17T18:16:40.244Z,8.10
2019-02-17T18:19:06.989Z,8.10
2019-02-17T18:21:33.693Z,8.20
2019-02-17T18:24:00.200Z,8.20
2019-02-17T18:26:27.175Z,8.30
2019-02-17T18:28:54.154Z,8.30
2019-02-17T18:31:20.882Z,8.30
2019-02-17T18:33:47.389Z,8.30
2019-02-17T18:36:14.447Z,8.40
2019-02-17T18:38:41.425Z,8.40
2019-02-17T18:41:08.139Z,8.40
2019-02-17T18:43:34.913Z,8.40
2019-02-17T18:46:01.617Z,8.30
2019-02-17T18:48:28.100Z,8.30
2019-02-17T18:50:59.106Z,8.30
2019-02-17T18:53:23.444Z,8.30
2019-02-17T18:55:50.161Z,8.40
2019-02-17T18:58:16.902Z,8.40
2019-02-17T19:00:43.617Z,8.30
2019-02-17T19:03:10.157Z,8.30
2019-02-17T19:05:36.968Z,8.40
2019-02-17T19:08:03.708Z,8.40
2019-02-17T19:10:30.531Z,8.40
2019-02-17T19:12:56.984Z,8.40
2019-02-17T19:15:23.471Z,8.50
2019-02-17T19:17:50.403Z,8.50
2019-02-17T19:20:17.555Z,8.40
2019-02-17T19:22:44.016Z,8.40
2019-02-17T19:25:10.752Z,8.30
2019-02-17T19:27:37.724Z,8.30
2019-02-17T19:30:04.632Z,8.30
2019-02-17T19:32:31.355Z,8.20
2019-02-17T19:34:58.335Z,8.30
2019-02-17T19:37:25.051Z,8.30
2019-02-17T19:39:52.038Z,8.30
2019-02-17T19:42:18.817Z,8.20
2019-02-17T19:44:45.779Z,8.20
2019-02-17T19:47:12.239Z,8.20
2019-02-17T19:49:39.208Z,8.20
2019-02-17T19:52:05.992Z,8.00
2019-02-17T19:54:32.524Z,7.90
2019-02-17T19:56:59.216Z,7.80
2019-02-17T19:59:25.700Z,7.70
2019-02-17T20:01:52.389Z,7.60
2019-02-17T20:04:30.480Z,7.50
2019-02-17T20:06:57.197Z,7.50
2019-02-17T20:09:23.920Z,7.40
2019-02-17T20:11:52.215Z,7.30
2019-02-17T20:14:19.311Z,7.20
2019-02-17T20:16:46.028Z,7.10
2019-02-17T20:19:12.508Z,7.00
2019-02-17T20:21:39.323Z,7.00
2019-02-17T20:24:07.948Z,7.00
2019-02-17T20:26:34.840Z,6.90
2019-02-17T20:29:01.313Z,6.80
2019-02-17T20:31:28.064Z,6.80
2019-02-17T20:33:54.523Z,6.70
2019-02-17T20:36:21.476Z,6.70
2019-02-17T20:38:48.193Z,6.60
2019-02-17T20:41:14.681Z,6.40
2019-02-17T20:43:41.375Z,6.30
2019-02-17T20:46:07.856Z,6.30
2019-02-17T20:48:34.895Z,6.30
2019-02-17T20:51:01.764Z,6.40
2019-02-17T20:53:28.216Z,6.40
2019-02-17T20:55:54.948Z,6.30
2019-02-17T20:58:21.647Z,6.20
2019-02-17T21:00:48.371Z,6.20
2019-02-17T21:03:15.055Z,6.10
2019-02-17T21:05:41.997Z,6.00
2019-02-17T21:08:08.692Z,5.90
2019-02-17T21:10:35.517Z,5.80
2019-02-17T21:13:02.217Z,5.70
2019-02-17T21:15:28.947Z,5.60
2019-02-17T21:17:55.404Z,5.50
2019-02-17T21:20:22.648Z,5.50
2019-02-17T21:22:49.352Z,5.50
2019-02-17T21:25:15.835Z,5.50
2019-02-17T21:27:42.541Z,5.50
2019-02-17T21:30:09.477Z,5.50
2019-02-17T21:32:36.412Z,5.50
2019-02-17T21:35:03.356Z,5.50
2019-02-17T21:37:29.840Z,5.50
2019-02-17T21:39:56.291Z,5.50
2019-02-17T21:42:22.772Z,5.40
2019-02-17T21:44:49.483Z,5.40
2019-02-17T21:47:16.201Z,5.30
2019-02-17T21:49:42.900Z,5.30
2019-02-17T21:52:09.377Z,5.20
2019-02-17T21:54:36.304Z,5.10
2019-02-17T21:57:03.023Z,5.10
2019-02-17T21:59:29.748Z,5.10
2019-02-17T22:01:56.466Z,5.10
2019-02-17T22:04:23.144Z,5.00
2019-02-17T22:06:49.960Z,4.90
2019-02-17T22:09:16.664Z,4.90
2019-02-17T22:11:43.384Z,4.90
2019-02-17T22:14:10.311Z,4.80
2019-02-17T22:16:37.128Z,4.70
2019-02-17T22:19:03.812Z,4.80
2019-02-17T22:21:30.612Z,4.90
2019-02-17T22:23:57.068Z,4.90
2019-02-17T22:26:24.023Z,4.90
2019-02-17T22:28:50.468Z,4.90
2019-02-17T22:31:16.959Z,4.90
2019-02-17T22:33:43.839Z,4.80
2019-02-17T22:36:10.537Z,4.80
2019-02-17T22:38:36.983Z,4.70
2019-02-17T22:41:03.460Z,4.70
2019-02-17T22:43:29.916Z,4.60
2019-02-17T22:45:56.379Z,4.60
2019-02-17T22:48:23.095Z,4.60
2019-02-17T22:50:49.815Z,4.60
2019-02-17T22:53:16.558Z,4.50
2019-02-17T22:55:43.272Z,4.50
2019-02-17T22:58:09.997Z,4.50
2019-02-17T23:01:02.475Z,4.40
2019-02-17T23:03:29.215Z,4.30
2019-02-17T23:05:55.896Z,4.30
2019-02-17T23:08:22.709Z,4.30
2019-02-17T23:10:49.422Z,4.30
2019-02-17T23:13:15.892Z,4.20
2019-02-17T23:15:42.356Z,4.20
2019-02-17T23:18:09.079Z,4.20
2019-02-17T23:20:35.884Z,4.20
2019-02-17T23:23:02.383Z,4.20
2019-02-17T23:25:29.273Z,4.20
2019-02-17T23:27:55.745Z,4.10
2019-02-17T23:30:22.205Z,4.10
2019-02-17T23:32:49.009Z,4.10
2019-02-17T23:35:15.707Z,4.10
2019-02-17T23:37:42.408Z,4.10
2019-02-17T23:40:09.211Z,4.10
2019-02-17T23:42:35.927Z,4.20
2019-02-17T23:45:02.657Z,4.30
2019-02-17T23:47:29.148Z,4.30
2019-02-17T23:49:55.704Z,4.30
2019-02-17T23:52:22.429Z,4.30
2019-02-17T23:54:49.117Z,4.20
2019-02-17T23:57:15.589Z,4.30
2019-02-17T23:59:42.048Z,4.30
